Stevensville, MD

6:39 PM EDT on September 01, 2015 (GMT -0400)
claiborne landing | | Change Station
CLOSE
Current Station
Personal Weather Station
Location: Stevensville, MD
Elevation: 16 ft
Nearby Weather Stations

Elev 16 ft 38.91 °N, 76.35 °W | Updated 12 minutes ago

Clear
Clear
86.2 °F
Feels Like 96 °F
N
0.0
Wind Variable Wind from WSW

Today
High -- | Low -- °F
--% Chance of Precip.
Yesterday
High -- | Low -- °F
Precip. -- in
6:33 AM 7:36 PM
Waning Gibbous, 86% visible
Pressure 30.01 in
Visibility 8.0 miles
Clouds Few 6000 ft
Heat Index 96 °F
Dew Point 76 °F
Humidity 71%
Rainfall in
Snow Depth Not available.
UV 1 out of 12
Pollen 9.80 out of 12
Air Quality Not available.
Flu Activity Not available.
METAR KNAK 012154Z AUTO 14004KT 8SM FEW060 29/22 A3000 RMK AO2 SLP160 T02940217
Pressure 30.01 in
Visibility 8.0 miles
Clouds Few 6000 ft
Heat Index 96 °F
Dew Point 76 °F
Humidity 71%
Rainfall in
Snow Depth Not available.
UV 1 out of 12
Pollen 9.80 out of 12
Air Quality Not available.
Flu Activity Not available.
METAR KNAK 012154Z AUTO 14004KT 8SM FEW060 29/22 A3000 RMK AO2 SLP160 T02940217

10-Day Weather Forecast

×

Almanac

Astronomy

Sep. 01, 2015 Rise Set
Actual Time
Civil Twilight
Nautical Twilight
Astronomical Twilight
Moon
Length of Visible Light
Length of Day
Tomorrow will be .
, % of the Moon is Illuminated

Today's Extremes

State Highs State Lows

Community

WunderPhotos

Upload Photos

1,851,634 photos uploaded!

WunderBlogs® & News

Nearby

Air Quality

  Air Quality AQ Index Pollutant
Not available.

Snow Depth

Station Depth Elevation

Earthquake Activity

City Distance Mag. Time & Date
Minimum magnitude displayed is 2.5.

Coastal Water Temperatures

Place Temperature

Stations

Nearby Weather Stations

Station Location Temp. Windchill Dew Point Humidity Wind Precip. Elev Updated Type